sensor_id;sensor_type;location;lat;lon;timestamp;temperature;humidity
16663;DHT22;8445;51.270;9.434;2023-12-07T00:00:32;2.80;81.70
16663;DHT22;8445;51.270;9.434;2023-12-07T00:02:58;2.80;81.70
16663;DHT22;8445;51.270;9.434;2023-12-07T00:05:25;2.80;81.70
16663;DHT22;8445;51.270;9.434;2023-12-07T00:07:51;2.80;81.80
16663;DHT22;8445;51.270;9.434;2023-12-07T00:10:17;2.80;81.80
16663;DHT22;8445;51.270;9.434;2023-12-07T00:12:43;2.80;81.90
16663;DHT22;8445;51.270;9.434;2023-12-07T00:15:09;2.80;81.70
16663;DHT22;8445;51.270;9.434;2023-12-07T00:17:35;2.80;81.70
16663;DHT22;8445;51.270;9.434;2023-12-07T00:20:01;2.80;81.70
16663;DHT22;8445;51.270;9.434;2023-12-07T00:22:30;2.90;81.70
16663;DHT22;8445;51.270;9.434;2023-12-07T00:24:55;2.80;81.60
16663;DHT22;8445;51.270;9.434;2023-12-07T00:27:21;2.90;81.70
16663;DHT22;8445;51.270;9.434;2023-12-07T00:29:47;2.90;81.70
16663;DHT22;8445;51.270;9.434;2023-12-07T00:32:14;2.80;81.80
16663;DHT22;8445;51.270;9.434;2023-12-07T00:34:40;2.80;81.80
16663;DHT22;8445;51.270;9.434;2023-12-07T00:37:09;2.80;81.80
16663;DHT22;8445;51.270;9.434;2023-12-07T00:39:37;2.90;81.80
16663;DHT22;8445;51.270;9.434;2023-12-07T00:42:03;2.80;81.80
16663;DHT22;8445;51.270;9.434;2023-12-07T00:44:30;2.80;81.90
16663;DHT22;8445;51.270;9.434;2023-12-07T00:46:57;2.80;81.90
16663;DHT22;8445;51.270;9.434;2023-12-07T00:49:23;2.80;81.90
16663;DHT22;8445;51.270;9.434;2023-12-07T00:51:51;2.80;81.90
16663;DHT22;8445;51.270;9.434;2023-12-07T00:54:17;2.90;81.90
16663;DHT22;8445;51.270;9.434;2023-12-07T00:56:45;2.90;82.00
16663;DHT22;8445;51.270;9.434;2023-12-07T00:59:14;2.90;81.90
16663;DHT22;8445;51.270;9.434;2023-12-07T01:01:42;2.90;81.90
16663;DHT22;8445;51.270;9.434;2023-12-07T01:04:09;2.90;81.80
16663;DHT22;8445;51.270;9.434;2023-12-07T01:06:36;2.90;81.80
16663;DHT22;8445;51.270;9.434;2023-12-07T01:09:04;2.90;81.90
16663;DHT22;8445;51.270;9.434;2023-12-07T01:11:31;2.90;81.90
16663;DHT22;8445;51.270;9.434;2023-12-07T01:13:58;2.90;81.90
16663;DHT22;8445;51.270;9.434;2023-12-07T01:16:25;2.90;81.80
16663;DHT22;8445;51.270;9.434;2023-12-07T01:18:52;2.90;81.80
16663;DHT22;8445;51.270;9.434;2023-12-07T01:21:18;2.90;81.80
16663;DHT22;8445;51.270;9.434;2023-12-07T01:23:45;2.90;81.80
16663;DHT22;8445;51.270;9.434;2023-12-07T01:26:11;2.90;81.80
16663;DHT22;8445;51.270;9.434;2023-12-07T01:28:37;2.90;81.80
16663;DHT22;8445;51.270;9.434;2023-12-07T01:31:04;2.90;81.70
16663;DHT22;8445;51.270;9.434;2023-12-07T01:33:31;2.90;81.60
16663;DHT22;8445;51.270;9.434;2023-12-07T01:35:59;2.90;81.50
16663;DHT22;8445;51.270;9.434;2023-12-07T01:38:30;2.90;81.50
16663;DHT22;8445;51.270;9.434;2023-12-07T01:40:57;2.90;81.50
16663;DHT22;8445;51.270;9.434;2023-12-07T01:43:23;2.90;81.40
16663;DHT22;8445;51.270;9.434;2023-12-07T01:45:51;2.90;81.40
16663;DHT22;8445;51.270;9.434;2023-12-07T01:48:20;3.00;81.40
16663;DHT22;8445;51.270;9.434;2023-12-07T01:50:49;3.00;81.30
16663;DHT22;8445;51.270;9.434;2023-12-07T01:53:17;2.90;81.20
16663;DHT22;8445;51.270;9.434;2023-12-07T01:55:44;3.00;81.20
16663;DHT22;8445;51.270;9.434;2023-12-07T01:58:11;2.90;81.40
16663;DHT22;8445;51.270;9.434;2023-12-07T02:00:41;3.00;81.30
16663;DHT22;8445;51.270;9.434;2023-12-07T02:03:08;3.00;81.20
16663;DHT22;8445;51.270;9.434;2023-12-07T02:05:43;2.90;81.20
16663;DHT22;8445;51.270;9.434;2023-12-07T02:08:16;2.90;81.20
16663;DHT22;8445;51.270;9.434;2023-12-07T02:10:43;3.00;81.30
16663;DHT22;8445;51.270;9.434;2023-12-07T02:13:10;2.90;81.30
16663;DHT22;8445;51.270;9.434;2023-12-07T02:15:40;2.90;81.30
16663;DHT22;8445;51.270;9.434;2023-12-07T02:18:16;3.00;81.40
16663;DHT22;8445;51.270;9.434;2023-12-07T02:21:13;3.00;81.40
16663;DHT22;8445;51.270;9.434;2023-12-07T02:23:51;3.00;81.30
16663;DHT22;8445;51.270;9.434;2023-12-07T02:26:22;3.00;81.30
16663;DHT22;8445;51.270;9.434;2023-12-07T02:29:03;3.00;81.30
16663;DHT22;8445;51.270;9.434;2023-12-07T02:31:30;3.00;81.20
16663;DHT22;8445;51.270;9.434;2023-12-07T02:33:57;3.00;81.20
16663;DHT22;8445;51.270;9.434;2023-12-07T02:36:24;3.00;81.30
16663;DHT22;8445;51.270;9.434;2023-12-07T02:38:57;3.00;81.20
16663;DHT22;8445;51.270;9.434;2023-12-07T02:41:27;3.00;81.30
16663;DHT22;8445;51.270;9.434;2023-12-07T02:43:54;3.00;81.20
16663;DHT22;8445;51.270;9.434;2023-12-07T02:46:21;3.00;81.00
16663;DHT22;8445;51.270;9.434;2023-12-07T02:48:46;2.90;81.00
16663;DHT22;8445;51.270;9.434;2023-12-07T02:51:12;2.90;81.00
16663;DHT22;8445;51.270;9.434;2023-12-07T02:53:38;2.80;81.20
16663;DHT22;8445;51.270;9.434;2023-12-07T02:56:05;2.80;81.30
16663;DHT22;8445;51.270;9.434;2023-12-07T02:58:31;2.80;81.40
16663;DHT22;8445;51.270;9.434;2023-12-07T03:00:56;2.80;81.50
16663;DHT22;8445;51.270;9.434;2023-12-07T03:03:22;2.80;81.50
16663;DHT22;8445;51.270;9.434;2023-12-07T03:05:48;2.80;81.50
16663;DHT22;8445;51.270;9.434;2023-12-07T03:08:14;2.80;81.70
16663;DHT22;8445;51.270;9.434;2023-12-07T03:10:40;2.80;81.80
16663;DHT22;8445;51.270;9.434;2023-12-07T03:13:06;2.80;81.80
16663;DHT22;8445;51.270;9.434;2023-12-07T03:15:32;2.80;81.90
16663;DHT22;8445;51.270;9.434;2023-12-07T03:17:58;2.80;81.80
16663;DHT22;8445;51.270;9.434;2023-12-07T03:20:23;2.90;81.90
16663;DHT22;8445;51.270;9.434;2023-12-07T03:22:49;2.90;81.80
16663;DHT22;8445;51.270;9.434;2023-12-07T03:25:15;2.90;81.70
16663;DHT22;8445;51.270;9.434;2023-12-07T03:27:41;3.00;81.70
16663;DHT22;8445;51.270;9.434;2023-12-07T03:30:07;3.00;81.60
16663;DHT22;8445;51.270;9.434;2023-12-07T03:32:33;3.00;81.50
16663;DHT22;8445;51.270;9.434;2023-12-07T03:34:59;3.00;81.50
16663;DHT22;8445;51.270;9.434;2023-12-07T03:37:25;3.00;81.40
16663;DHT22;8445;51.270;9.434;2023-12-07T03:39:51;3.10;81.30
16663;DHT22;8445;51.270;9.434;2023-12-07T03:42:17;3.00;81.30
16663;DHT22;8445;51.270;9.434;2023-12-07T03:44:43;3.00;81.30
16663;DHT22;8445;51.270;9.434;2023-12-07T03:47:09;3.00;81.20
16663;DHT22;8445;51.270;9.434;2023-12-07T03:49:35;3.00;81.30
16663;DHT22;8445;51.270;9.434;2023-12-07T03:52:01;3.00;81.30
16663;DHT22;8445;51.270;9.434;2023-12-07T03:54:27;3.00;81.30
16663;DHT22;8445;51.270;9.434;2023-12-07T03:56:53;3.00;81.30
16663;DHT22;8445;51.270;9.434;2023-12-07T03:59:19;2.90;81.40
16663;DHT22;8445;51.270;9.434;2023-12-07T04:01:45;2.90;81.40
16663;DHT22;8445;51.270;9.434;2023-12-07T04:04:11;2.90;81.50
16663;DHT22;8445;51.270;9.434;2023-12-07T04:06:37;2.90;81.50
16663;DHT22;8445;51.270;9.434;2023-12-07T04:09:02;2.90;81.50
16663;DHT22;8445;51.270;9.434;2023-12-07T04:11:29;2.90;81.50
16663;DHT22;8445;51.270;9.434;2023-12-07T04:13:55;2.90;81.50
16663;DHT22;8445;51.270;9.434;2023-12-07T04:16:21;2.90;81.40
16663;DHT22;8445;51.270;9.434;2023-12-07T04:18:47;2.90;81.20
16663;DHT22;8445;51.270;9.434;2023-12-07T04:21:13;2.90;81.20
16663;DHT22;8445;51.270;9.434;2023-12-07T04:23:39;2.90;81.20
16663;DHT22;8445;51.270;9.434;2023-12-07T04:26:05;2.90;81.20
16663;DHT22;8445;51.270;9.434;2023-12-07T04:28:31;2.90;81.30
16663;DHT22;8445;51.270;9.434;2023-12-07T04:30:57;2.90;81.20
16663;DHT22;8445;51.270;9.434;2023-12-07T04:33:22;2.80;81.40
16663;DHT22;8445;51.270;9.434;2023-12-07T04:35:49;2.80;81.40
16663;DHT22;8445;51.270;9.434;2023-12-07T04:38:14;2.80;81.40
16663;DHT22;8445;51.270;9.434;2023-12-07T04:40:40;2.80;81.50
16663;DHT22;8445;51.270;9.434;2023-12-07T04:43:08;2.80;81.50
16663;DHT22;8445;51.270;9.434;2023-12-07T04:45:34;2.80;81.50
16663;DHT22;8445;51.270;9.434;2023-12-07T04:48:03;2.80;81.50
16663;DHT22;8445;51.270;9.434;2023-12-07T04:50:29;2.80;81.50
16663;DHT22;8445;51.270;9.434;2023-12-07T04:52:55;2.80;81.50
16663;DHT22;8445;51.270;9.434;2023-12-07T04:55:21;2.80;81.50
16663;DHT22;8445;51.270;9.434;2023-12-07T04:57:47;2.80;81.50
16663;DHT22;8445;51.270;9.434;2023-12-07T05:00:13;2.80;81.40
16663;DHT22;8445;51.270;9.434;2023-12-07T05:02:39;2.80;81.40
16663;DHT22;8445;51.270;9.434;2023-12-07T05:05:05;2.80;81.40
16663;DHT22;8445;51.270;9.434;2023-12-07T05:07:31;2.80;81.50
16663;DHT22;8445;51.270;9.434;2023-12-07T05:09:57;2.80;81.40
16663;DHT22;8445;51.270;9.434;2023-12-07T05:12:23;2.80;81.40
16663;DHT22;8445;51.270;9.434;2023-12-07T05:14:49;2.80;81.40
16663;DHT22;8445;51.270;9.434;2023-12-07T05:17:15;2.80;81.30
16663;DHT22;8445;51.270;9.434;2023-12-07T05:19:41;2.80;81.30
16663;DHT22;8445;51.270;9.434;2023-12-07T05:22:07;2.80;81.20
16663;DHT22;8445;51.270;9.434;2023-12-07T05:24:34;2.70;81.30
16663;DHT22;8445;51.270;9.434;2023-12-07T05:27:00;2.70;81.40
16663;DHT22;8445;51.270;9.434;2023-12-07T05:29:26;2.70;81.50
16663;DHT22;8445;51.270;9.434;2023-12-07T05:31:52;2.70;81.40
16663;DHT22;8445;51.270;9.434;2023-12-07T05:34:18;2.60;81.50
16663;DHT22;8445;51.270;9.434;2023-12-07T05:36:44;2.60;81.50
16663;DHT22;8445;51.270;9.434;2023-12-07T05:39:12;2.60;81.50
16663;DHT22;8445;51.270;9.434;2023-12-07T05:41:38;2.60;81.50
16663;DHT22;8445;51.270;9.434;2023-12-07T05:44:04;2.60;81.60
16663;DHT22;8445;51.270;9.434;2023-12-07T05:46:31;2.60;81.70
16663;DHT22;8445;51.270;9.434;2023-12-07T05:48:58;2.60;81.70
16663;DHT22;8445;51.270;9.434;2023-12-07T05:51:24;2.60;81.70
16663;DHT22;8445;51.270;9.434;2023-12-07T05:53:50;2.60;81.70
16663;DHT22;8445;51.270;9.434;2023-12-07T05:56:19;2.60;81.60
16663;DHT22;8445;51.270;9.434;2023-12-07T05:58:48;2.60;81.80
16663;DHT22;8445;51.270;9.434;2023-12-07T06:01:17;2.60;81.90
16663;DHT22;8445;51.270;9.434;2023-12-07T06:03:44;2.50;82.00
16663;DHT22;8445;51.270;9.434;2023-12-07T06:06:11;2.60;81.90
16663;DHT22;8445;51.270;9.434;2023-12-07T06:08:37;2.60;81.90
16663;DHT22;8445;51.270;9.434;2023-12-07T06:11:03;2.60;81.80
16663;DHT22;8445;51.270;9.434;2023-12-07T06:13:30;2.60;81.90
16663;DHT22;8445;51.270;9.434;2023-12-07T06:15:55;2.70;81.90
16663;DHT22;8445;51.270;9.434;2023-12-07T06:18:21;2.70;81.90
16663;DHT22;8445;51.270;9.434;2023-12-07T06:20:47;2.70;81.80
16663;DHT22;8445;51.270;9.434;2023-12-07T06:23:13;2.70;81.90
16663;DHT22;8445;51.270;9.434;2023-12-07T06:25:40;2.70;81.90
16663;DHT22;8445;51.270;9.434;2023-12-07T06:28:06;2.70;81.80
16663;DHT22;8445;51.270;9.434;2023-12-07T06:30:32;2.70;81.80
16663;DHT22;8445;51.270;9.434;2023-12-07T06:32:58;2.70;81.90
16663;DHT22;8445;51.270;9.434;2023-12-07T06:35:24;2.70;81.90
16663;DHT22;8445;51.270;9.434;2023-12-07T06:37:50;2.70;81.90
16663;DHT22;8445;51.270;9.434;2023-12-07T06:40:15;2.70;81.90
16663;DHT22;8445;51.270;9.434;2023-12-07T06:42:41;2.70;82.00
16663;DHT22;8445;51.270;9.434;2023-12-07T06:45:08;2.70;82.00
16663;DHT22;8445;51.270;9.434;2023-12-07T06:47:39;2.60;82.00
16663;DHT22;8445;51.270;9.434;2023-12-07T06:50:08;2.70;82.10
16663;DHT22;8445;51.270;9.434;2023-12-07T06:53:01;2.60;82.20
16663;DHT22;8445;51.270;9.434;2023-12-07T06:55:47;2.60;82.20
16663;DHT22;8445;51.270;9.434;2023-12-07T06:58:13;2.60;82.20
16663;DHT22;8445;51.270;9.434;2023-12-07T07:00:39;2.60;82.20
16663;DHT22;8445;51.270;9.434;2023-12-07T07:03:05;2.60;82.40
16663;DHT22;8445;51.270;9.434;2023-12-07T07:05:34;2.50;82.30
16663;DHT22;8445;51.270;9.434;2023-12-07T07:08:00;2.60;82.30
16663;DHT22;8445;51.270;9.434;2023-12-07T07:10:26;2.60;82.30
16663;DHT22;8445;51.270;9.434;2023-12-07T07:12:52;2.60;82.40
16663;DHT22;8445;51.270;9.434;2023-12-07T07:15:18;2.60;82.40
16663;DHT22;8445;51.270;9.434;2023-12-07T07:17:45;2.60;82.40
16663;DHT22;8445;51.270;9.434;2023-12-07T07:20:11;2.60;82.40
16663;DHT22;8445;51.270;9.434;2023-12-07T07:22:37;2.70;82.40
16663;DHT22;8445;51.270;9.434;2023-12-07T07:25:03;2.60;82.50
16663;DHT22;8445;51.270;9.434;2023-12-07T07:27:30;2.60;82.60
16663;DHT22;8445;51.270;9.434;2023-12-07T07:29:55;2.60;82.60
16663;DHT22;8445;51.270;9.434;2023-12-07T07:32:21;2.70;82.60
16663;DHT22;8445;51.270;9.434;2023-12-07T07:34:47;2.70;82.60
16663;DHT22;8445;51.270;9.434;2023-12-07T07:37:13;2.70;82.50
16663;DHT22;8445;51.270;9.434;2023-12-07T07:39:39;2.70;82.50
16663;DHT22;8445;51.270;9.434;2023-12-07T07:42:05;2.70;82.40
16663;DHT22;8445;51.270;9.434;2023-12-07T07:44:31;2.70;82.40
16663;DHT22;8445;51.270;9.434;2023-12-07T07:46:59;2.80;82.30
16663;DHT22;8445;51.270;9.434;2023-12-07T07:49:25;2.80;82.40
16663;DHT22;8445;51.270;9.434;2023-12-07T07:51:51;2.80;82.30
16663;DHT22;8445;51.270;9.434;2023-12-07T07:54:16;2.80;82.20
16663;DHT22;8445;51.270;9.434;2023-12-07T07:56:43;2.90;82.10
16663;DHT22;8445;51.270;9.434;2023-12-07T07:59:09;2.90;82.10
16663;DHT22;8445;51.270;9.434;2023-12-07T08:01:35;2.90;81.90
16663;DHT22;8445;51.270;9.434;2023-12-07T08:04:01;3.00;81.80
16663;DHT22;8445;51.270;9.434;2023-12-07T08:06:27;3.00;81.80
16663;DHT22;8445;51.270;9.434;2023-12-07T08:08:53;3.00;81.60
16663;DHT22;8445;51.270;9.434;2023-12-07T08:11:19;3.10;81.50
16663;DHT22;8445;51.270;9.434;2023-12-07T08:13:45;3.10;81.50
16663;DHT22;8445;51.270;9.434;2023-12-07T08:16:10;3.00;81.50
16663;DHT22;8445;51.270;9.434;2023-12-07T08:18:36;3.10;81.50
16663;DHT22;8445;51.270;9.434;2023-12-07T08:21:03;3.10;81.50
16663;DHT22;8445;51.270;9.434;2023-12-07T08:23:29;3.10;81.60
16663;DHT22;8445;51.270;9.434;2023-12-07T08:25:55;3.10;81.50
16663;DHT22;8445;51.270;9.434;2023-12-07T08:28:22;3.10;81.50
16663;DHT22;8445;51.270;9.434;2023-12-07T08:30:48;3.10;81.60
16663;DHT22;8445;51.270;9.434;2023-12-07T08:33:14;3.20;81.50
16663;DHT22;8445;51.270;9.434;2023-12-07T08:35:40;3.30;81.50
16663;DHT22;8445;51.270;9.434;2023-12-07T08:38:06;3.30;81.50
16663;DHT22;8445;51.270;9.434;2023-12-07T08:40:32;3.30;81.50
16663;DHT22;8445;51.270;9.434;2023-12-07T08:42:58;3.30;81.50
16663;DHT22;8445;51.270;9.434;2023-12-07T08:45:24;3.40;81.40
16663;DHT22;8445;51.270;9.434;2023-12-07T08:47:50;3.50;81.20
16663;DHT22;8445;51.270;9.434;2023-12-07T08:50:15;3.50;81.20
16663;DHT22;8445;51.270;9.434;2023-12-07T08:52:45;3.50;81.00
16663;DHT22;8445;51.270;9.434;2023-12-07T08:55:11;3.60;80.90
16663;DHT22;8445;51.270;9.434;2023-12-07T08:57:40;3.70;80.90
16663;DHT22;8445;51.270;9.434;2023-12-07T09:00:07;3.70;80.80
16663;DHT22;8445;51.270;9.434;2023-12-07T09:02:33;3.80;80.90
16663;DHT22;8445;51.270;9.434;2023-12-07T09:04:59;3.90;80.90
16663;DHT22;8445;51.270;9.434;2023-12-07T09:07:24;3.90;80.60
16663;DHT22;8445;51.270;9.434;2023-12-07T09:09:50;3.90;80.60
16663;DHT22;8445;51.270;9.434;2023-12-07T09:12:16;4.00;80.60
16663;DHT22;8445;51.270;9.434;2023-12-07T09:14:42;4.00;80.70
16663;DHT22;8445;51.270;9.434;2023-12-07T09:17:08;4.10;80.60
16663;DHT22;8445;51.270;9.434;2023-12-07T09:19:34;4.20;80.50
16663;DHT22;8445;51.270;9.434;2023-12-07T09:22:00;4.30;80.40
16663;DHT22;8445;51.270;9.434;2023-12-07T09:24:26;4.30;80.20
16663;DHT22;8445;51.270;9.434;2023-12-07T09:26:52;4.40;80.10
16663;DHT22;8445;51.270;9.434;2023-12-07T09:29:17;4.40;80.20
16663;DHT22;8445;51.270;9.434;2023-12-07T09:31:43;4.50;79.70
16663;DHT22;8445;51.270;9.434;2023-12-07T09:34:09;4.50;79.40
16663;DHT22;8445;51.270;9.434;2023-12-07T09:36:35;4.60;79.70
16663;DHT22;8445;51.270;9.434;2023-12-07T09:39:01;4.70;79.50
16663;DHT22;8445;51.270;9.434;2023-12-07T09:41:34;4.90;79.30
16663;DHT22;8445;51.270;9.434;2023-12-07T09:44:00;4.90;79.10
16663;DHT22;8445;51.270;9.434;2023-12-07T09:46:27;5.00;78.90
16663;DHT22;8445;51.270;9.434;2023-12-07T09:48:54;5.10;78.90
16663;DHT22;8445;51.270;9.434;2023-12-07T09:51:22;5.20;78.50
16663;DHT22;8445;51.270;9.434;2023-12-07T09:53:53;5.30;78.30
16663;DHT22;8445;51.270;9.434;2023-12-07T09:56:20;5.40;78.30
16663;DHT22;8445;51.270;9.434;2023-12-07T09:58:46;5.50;77.70
16663;DHT22;8445;51.270;9.434;2023-12-07T10:01:12;5.50;77.10
16663;DHT22;8445;51.270;9.434;2023-12-07T10:03:40;5.50;77.10
16663;DHT22;8445;51.270;9.434;2023-12-07T10:06:06;5.50;76.90
16663;DHT22;8445;51.270;9.434;2023-12-07T10:08:33;5.50;76.60
16663;DHT22;8445;51.270;9.434;2023-12-07T10:11:14;5.50;76.20
16663;DHT22;8445;51.270;9.434;2023-12-07T10:13:44;5.50;75.70
16663;DHT22;8445;51.270;9.434;2023-12-07T10:16:15;5.30;75.80
16663;DHT22;8445;51.270;9.434;2023-12-07T10:18:42;5.20;76.00
16663;DHT22;8445;51.270;9.434;2023-12-07T10:21:08;5.10;75.70
16663;DHT22;8445;51.270;9.434;2023-12-07T10:23:38;5.00;75.50
16663;DHT22;8445;51.270;9.434;2023-12-07T10:26:06;4.90;75.40
16663;DHT22;8445;51.270;9.434;2023-12-07T10:28:34;4.80;75.30
16663;DHT22;8445;51.270;9.434;2023-12-07T10:31:02;4.70;75.70
16663;DHT22;8445;51.270;9.434;2023-12-07T10:33:28;4.50;75.60
16663;DHT22;8445;51.270;9.434;2023-12-07T10:35:55;4.40;75.70
16663;DHT22;8445;51.270;9.434;2023-12-07T10:38:21;4.30;75.90
16663;DHT22;8445;51.270;9.434;2023-12-07T10:40:47;4.20;76.10
16663;DHT22;8445;51.270;9.434;2023-12-07T10:43:19;4.20;76.20
16663;DHT22;8445;51.270;9.434;2023-12-07T10:45:47;4.00;76.30
16663;DHT22;8445;51.270;9.434;2023-12-07T10:48:14;4.00;76.40
16663;DHT22;8445;51.270;9.434;2023-12-07T10:50:46;3.90;76.60
16663;DHT22;8445;51.270;9.434;2023-12-07T10:53:27;3.90;76.90
16663;DHT22;8445;51.270;9.434;2023-12-07T10:56:01;3.90;77.10
16663;DHT22;8445;51.270;9.434;2023-12-07T10:58:28;3.90;77.10
16663;DHT22;8445;51.270;9.434;2023-12-07T11:00:54;3.90;77.10
16663;DHT22;8445;51.270;9.434;2023-12-07T11:03:22;3.90;77.00
16663;DHT22;8445;51.270;9.434;2023-12-07T11:05:50;3.80;77.00
16663;DHT22;8445;51.270;9.434;2023-12-07T11:14:10;3.80;77.30
16663;DHT22;8445;51.270;9.434;2023-12-07T11:16:43;3.80;77.30
16663;DHT22;8445;51.270;9.434;2023-12-07T11:22:01;3.90;77.40
16663;DHT22;8445;51.270;9.434;2023-12-07T11:24:29;3.90;77.60
16663;DHT22;8445;51.270;9.434;2023-12-07T11:26:56;4.00;77.50
16663;DHT22;8445;51.270;9.434;2023-12-07T11:29:28;4.00;77.20
16663;DHT22;8445;51.270;9.434;2023-12-07T11:32:01;4.10;76.90
16663;DHT22;8445;51.270;9.434;2023-12-07T11:34:42;4.10;76.80
16663;DHT22;8445;51.270;9.434;2023-12-07T11:37:10;4.10;76.60
16663;DHT22;8445;51.270;9.434;2023-12-07T11:39:42;4.10;76.50
16663;DHT22;8445;51.270;9.434;2023-12-07T11:42:15;4.10;76.20
16663;DHT22;8445;51.270;9.434;2023-12-07T11:44:43;4.10;76.20
16663;DHT22;8445;51.270;9.434;2023-12-07T11:47:16;4.20;76.20
16663;DHT22;8445;51.270;9.434;2023-12-07T11:49:47;4.20;76.10
16663;DHT22;8445;51.270;9.434;2023-12-07T11:52:17;4.20;76.20
16663;DHT22;8445;51.270;9.434;2023-12-07T11:54:49;4.20;76.00
16663;DHT22;8445;51.270;9.434;2023-12-07T11:57:17;4.20;75.90
16663;DHT22;8445;51.270;9.434;2023-12-07T11:59:46;4.20;76.10
16663;DHT22;8445;51.270;9.434;2023-12-07T12:02:15;4.20;76.20
16663;DHT22;8445;51.270;9.434;2023-12-07T12:04:41;4.30;76.20
16663;DHT22;8445;51.270;9.434;2023-12-07T12:07:07;4.30;76.40
16663;DHT22;8445;51.270;9.434;2023-12-07T12:09:33;4.40;76.30
16663;DHT22;8445;51.270;9.434;2023-12-07T12:12:00;4.50;76.10
16663;DHT22;8445;51.270;9.434;2023-12-07T12:14:27;4.50;75.70
16663;DHT22;8445;51.270;9.434;2023-12-07T12:16:56;4.50;75.60
16663;DHT22;8445;51.270;9.434;2023-12-07T12:19:23;4.60;75.50
16663;DHT22;8445;51.270;9.434;2023-12-07T12:21:50;4.60;75.40
16663;DHT22;8445;51.270;9.434;2023-12-07T12:24:17;4.60;75.30
16663;DHT22;8445;51.270;9.434;2023-12-07T12:26:44;4.60;75.10
16663;DHT22;8445;51.270;9.434;2023-12-07T12:29:13;4.60;75.00
16663;DHT22;8445;51.270;9.434;2023-12-07T12:31:41;4.60;74.90
16663;DHT22;8445;51.270;9.434;2023-12-07T12:34:11;4.50;75.10
16663;DHT22;8445;51.270;9.434;2023-12-07T12:36:38;4.50;75.20
16663;DHT22;8445;51.270;9.434;2023-12-07T12:39:05;4.50;74.80
16663;DHT22;8445;51.270;9.434;2023-12-07T12:41:34;4.50;74.70
16663;DHT22;8445;51.270;9.434;2023-12-07T12:44:00;4.40;74.70
16663;DHT22;8445;51.270;9.434;2023-12-07T12:46:31;4.40;74.50
16663;DHT22;8445;51.270;9.434;2023-12-07T12:49:00;4.30;74.40
16663;DHT22;8445;51.270;9.434;2023-12-07T12:51:30;4.30;74.50
16663;DHT22;8445;51.270;9.434;2023-12-07T12:53:59;4.30;74.50
16663;DHT22;8445;51.270;9.434;2023-12-07T12:56:27;4.30;74.50
16663;DHT22;8445;51.270;9.434;2023-12-07T12:58:56;4.30;74.70
16663;DHT22;8445;51.270;9.434;2023-12-07T13:01:23;4.40;74.80
16663;DHT22;8445;51.270;9.434;2023-12-07T13:03:49;4.50;74.80
16663;DHT22;8445;51.270;9.434;2023-12-07T13:06:17;4.50;74.80
16663;DHT22;8445;51.270;9.434;2023-12-07T13:08:44;4.60;74.80
16663;DHT22;8445;51.270;9.434;2023-12-07T13:11:19;4.70;74.60
16663;DHT22;8445;51.270;9.434;2023-12-07T13:13:47;4.70;74.30
16663;DHT22;8445;51.270;9.434;2023-12-07T13:16:18;4.70;74.00
16663;DHT22;8445;51.270;9.434;2023-12-07T13:18:47;4.70;73.50
16663;DHT22;8445;51.270;9.434;2023-12-07T13:21:13;4.70;73.50
16663;DHT22;8445;51.270;9.434;2023-12-07T13:23:41;4.60;73.30
16663;DHT22;8445;51.270;9.434;2023-12-07T13:26:08;4.50;73.30
16663;DHT22;8445;51.270;9.434;2023-12-07T13:28:34;4.50;73.20
16663;DHT22;8445;51.270;9.434;2023-12-07T13:31:00;4.50;73.10
16663;DHT22;8445;51.270;9.434;2023-12-07T13:33:28;4.50;73.40
16663;DHT22;8445;51.270;9.434;2023-12-07T13:35:54;4.50;73.30
16663;DHT22;8445;51.270;9.434;2023-12-07T13:38:20;4.50;73.30
16663;DHT22;8445;51.270;9.434;2023-12-07T13:40:46;4.40;73.20
16663;DHT22;8445;51.270;9.434;2023-12-07T13:43:13;4.40;73.20
16663;DHT22;8445;51.270;9.434;2023-12-07T13:45:38;4.30;73.20
16663;DHT22;8445;51.270;9.434;2023-12-07T13:48:05;4.30;73.20
16663;DHT22;8445;51.270;9.434;2023-12-07T13:50:31;4.30;73.50
16663;DHT22;8445;51.270;9.434;2023-12-07T13:52:58;4.20;73.70
16663;DHT22;8445;51.270;9.434;2023-12-07T13:55:26;4.30;73.60
16663;DHT22;8445;51.270;9.434;2023-12-07T13:57:54;4.30;73.70
16663;DHT22;8445;51.270;9.434;2023-12-07T14:00:23;4.30;73.70
16663;DHT22;8445;51.270;9.434;2023-12-07T14:02:49;4.30;73.60
16663;DHT22;8445;51.270;9.434;2023-12-07T14:05:16;4.20;73.50
16663;DHT22;8445;51.270;9.434;2023-12-07T14:07:44;4.20;73.40
16663;DHT22;8445;51.270;9.434;2023-12-07T14:10:13;4.20;73.30
16663;DHT22;8445;51.270;9.434;2023-12-07T14:12:42;4.10;73.40
16663;DHT22;8445;51.270;9.434;2023-12-07T14:15:09;4.10;73.30
16663;DHT22;8445;51.270;9.434;2023-12-07T14:17:37;4.00;73.30
16663;DHT22;8445;51.270;9.434;2023-12-07T14:20:06;3.90;73.40
16663;DHT22;8445;51.270;9.434;2023-12-07T14:22:35;3.90;73.50
16663;DHT22;8445;51.270;9.434;2023-12-07T14:25:02;3.90;73.60
16663;DHT22;8445;51.270;9.434;2023-12-07T14:27:28;3.80;73.70
16663;DHT22;8445;51.270;9.434;2023-12-07T14:29:54;3.70;73.80
16663;DHT22;8445;51.270;9.434;2023-12-07T14:32:20;3.70;73.80
16663;DHT22;8445;51.270;9.434;2023-12-07T14:34:46;3.60;73.90
16663;DHT22;8445;51.270;9.434;2023-12-07T14:37:12;3.60;74.00
16663;DHT22;8445;51.270;9.434;2023-12-07T14:39:40;3.50;74.10
16663;DHT22;8445;51.270;9.434;2023-12-07T14:42:09;3.50;74.10
16663;DHT22;8445;51.270;9.434;2023-12-07T14:44:36;3.50;74.30
16663;DHT22;8445;51.270;9.434;2023-12-07T14:47:04;3.50;74.30
16663;DHT22;8445;51.270;9.434;2023-12-07T14:49:30;3.50;74.30
16663;DHT22;8445;51.270;9.434;2023-12-07T14:51:57;3.40;74.40
16663;DHT22;8445;51.270;9.434;2023-12-07T14:54:25;3.30;74.40
16663;DHT22;8445;51.270;9.434;2023-12-07T14:56:51;3.30;74.50
16663;DHT22;8445;51.270;9.434;2023-12-07T14:59:17;3.30;74.50
16663;DHT22;8445;51.270;9.434;2023-12-07T15:01:45;3.30;74.60
16663;DHT22;8445;51.270;9.434;2023-12-07T15:04:11;3.30;74.60
16663;DHT22;8445;51.270;9.434;2023-12-07T15:06:37;3.30;74.60
16663;DHT22;8445;51.270;9.434;2023-12-07T15:09:03;3.20;74.60
16663;DHT22;8445;51.270;9.434;2023-12-07T15:11:34;3.20;74.60
16663;DHT22;8445;51.270;9.434;2023-12-07T15:14:01;3.10;74.60
16663;DHT22;8445;51.270;9.434;2023-12-07T15:16:28;3.10;74.70
16663;DHT22;8445;51.270;9.434;2023-12-07T15:18:55;3.10;74.80
16663;DHT22;8445;51.270;9.434;2023-12-07T15:21:21;3.10;74.80
16663;DHT22;8445;51.270;9.434;2023-12-07T15:23:49;3.10;74.90
16663;DHT22;8445;51.270;9.434;2023-12-07T15:26:14;3.10;75.00
16663;DHT22;8445;51.270;9.434;2023-12-07T15:28:42;3.10;74.90
16663;DHT22;8445;51.270;9.434;2023-12-07T15:31:08;3.10;74.80
16663;DHT22;8445;51.270;9.434;2023-12-07T15:33:34;3.10;74.80
16663;DHT22;8445;51.270;9.434;2023-12-07T15:36:02;3.10;74.70
16663;DHT22;8445;51.270;9.434;2023-12-07T15:38:29;3.00;74.70
16663;DHT22;8445;51.270;9.434;2023-12-07T15:40:56;2.90;74.70
16663;DHT22;8445;51.270;9.434;2023-12-07T15:43:24;2.90;74.70
16663;DHT22;8445;51.270;9.434;2023-12-07T15:45:51;2.90;74.70
16663;DHT22;8445;51.270;9.434;2023-12-07T15:48:18;2.80;74.70
16663;DHT22;8445;51.270;9.434;2023-12-07T15:50:48;2.70;74.80
16663;DHT22;8445;51.270;9.434;2023-12-07T15:53:18;2.70;74.90
16663;DHT22;8445;51.270;9.434;2023-12-07T15:55:44;2.70;75.00
16663;DHT22;8445;51.270;9.434;2023-12-07T15:58:13;2.70;75.00
16663;DHT22;8445;51.270;9.434;2023-12-07T16:00:43;2.60;75.00
16663;DHT22;8445;51.270;9.434;2023-12-07T16:03:09;2.50;75.00
16663;DHT22;8445;51.270;9.434;2023-12-07T16:05:35;2.50;75.00
16663;DHT22;8445;51.270;9.434;2023-12-07T16:08:01;2.50;75.00
16663;DHT22;8445;51.270;9.434;2023-12-07T16:10:28;2.40;75.00